Time,TemperatureF,DewpointF,PressureIn,WindDirection,WindDirectionDegrees,WindSpeedMPH,WindSpeedGustMPH,Humidity,HourlyPrecipIn,Conditions,Clouds,dailyrainin,SoftwareType,DateUTC
2013-08-05 00:01:00,67.8,61.2,29.75,North,-999,-999.0,-999.0,79,-99.99,,,-99.99,meteohub,2013-08-05 04:01:00,
2013-08-05 00:02:00,67.8,61.2,29.75,North,-999,-999.0,-999.0,79,-99.99,,,-99.99,meteohub,2013-08-05 04:02:00,
2013-08-05 00:03:00,67.8,61.2,29.75,North,-999,-999.0,-999.0,79,-99.99,,,-99.99,meteohub,2013-08-05 04:03:00,
2013-08-05 00:08:00,67.8,61.2,29.72,North,-999,-999.0,-999.0,79,-99.99,,,-99.99,meteohub,2013-08-05 04:08:00,
2013-08-05 00:13:00,67.8,61.3,29.72,North,-999,-999.0,-999.0,80,-99.99,,,-99.99,meteohub,2013-08-05 04:13:00,
2013-08-05 00:18:00,67.6,61.3,29.75,North,-999,-999.0,-999.0,80,-99.99,,,-99.99,meteohub,2013-08-05 04:18:00,
2013-08-05 00:24:00,67.6,61.3,29.75,North,-999,-999.0,-999.0,80,-99.99,,,-99.99,meteohub,2013-08-05 04:24:00,
2013-08-05 00:29:00,67.5,61.2,29.75,North,-999,-999.0,-999.0,80,-99.99,,,-99.99,meteohub,2013-08-05 04:29:00,
2013-08-05 00:34:00,67.3,61.0,29.75,North,-999,-999.0,-999.0,80,-99.99,,,-99.99,meteohub,2013-08-05 04:34:00,
2013-08-05 00:39:00,67.1,61.2,29.75,North,-999,-999.0,-999.0,81,-99.99,,,-99.99,meteohub,2013-08-05 04:39:00,
2013-08-05 00:44:00,67.3,61.3,29.75,North,-999,-999.0,-999.0,81,-99.99,,,-99.99,meteohub,2013-08-05 04:44:00,
2013-08-05 00:49:00,67.3,61.3,29.75,North,-999,-999.0,-999.0,81,-99.99,,,-99.99,meteohub,2013-08-05 04:49:00,
2013-08-05 00:55:00,67.1,61.2,29.75,North,-999,-999.0,-999.0,81,-99.99,,,-99.99,meteohub,2013-08-05 04:55:00,
2013-08-05 01:00:00,67.1,61.3,29.75,North,-999,-999.0,-999.0,82,-99.99,,,-99.99,meteohub,2013-08-05 05:00:00,
2013-08-05 01:05:00,66.9,61.2,29.75,North,-999,-999.0,-999.0,82,-99.99,,,-99.99,meteohub,2013-08-05 05:05:00,
2013-08-05 01:10:00,67.1,61.3,29.75,North,-999,-999.0,-999.0,82,-99.99,,,-99.99,meteohub,2013-08-05 05:10:00,
2013-08-05 01:15:00,66.7,61.2,29.75,North,-999,-999.0,-999.0,82,-99.99,,,-99.99,meteohub,2013-08-05 05:15:00,
2013-08-05 01:20:00,66.7,61.3,29.75,North,-999,-999.0,-999.0,83,-99.99,,,-99.99,meteohub,2013-08-05 05:20:00,
2013-08-05 01:26:00,66.7,61.3,29.75,North,-999,-999.0,-999.0,83,-99.99,,,-99.99,meteohub,2013-08-05 05:26:00,
2013-08-05 01:31:00,66.6,61.2,29.75,North,-999,-999.0,-999.0,83,-99.99,,,-99.99,meteohub,2013-08-05 05:31:00,
2013-08-05 01:36:00,66.6,61.2,29.75,North,-999,-999.0,-999.0,83,-99.99,,,-99.99,meteohub,2013-08-05 05:36:00,
2013-08-05 01:41:00,66.6,61.2,29.75,North,-999,-999.0,-999.0,83,-99.99,,,-99.99,meteohub,2013-08-05 05:41:00,
2013-08-05 01:47:00,66.2,60.8,29.75,North,-999,-999.0,-999.0,83,-99.99,,,-99.99,meteohub,2013-08-05 05:47:00,
2013-08-05 01:52:00,66.0,61.0,29.75,North,-999,-999.0,-999.0,84,-99.99,,,-99.99,meteohub,2013-08-05 05:52:00,
2013-08-05 01:56:00,66.2,61.2,29.75,North,-999,-999.0,-999.0,84,-99.99,,,-99.99,meteohub,2013-08-05 05:56:00,
2013-08-05 02:02:00,66.2,61.2,29.75,North,-999,-999.0,-999.0,84,-99.99,,,-99.99,meteohub,2013-08-05 06:02:00,
2013-08-05 02:07:00,66.0,61.3,29.75,North,-999,-999.0,-999.0,85,-99.99,,,-99.99,meteohub,2013-08-05 06:07:00,
2013-08-05 02:12:00,65.8,61.2,29.75,North,-999,-999.0,-999.0,85,-99.99,,,-99.99,meteohub,2013-08-05 06:12:00,
2013-08-05 02:17:00,66.0,61.3,29.75,North,-999,-999.0,-999.0,85,-99.99,,,-99.99,meteohub,2013-08-05 06:17:00,
2013-08-05 02:22:00,65.8,61.2,29.75,North,-999,-999.0,-999.0,85,-99.99,,,-99.99,meteohub,2013-08-05 06:22:00,
2013-08-05 02:27:00,65.8,61.2,29.75,North,-999,-999.0,-999.0,85,-99.99,,,-99.99,meteohub,2013-08-05 06:27:00,
2013-08-05 02:32:00,65.8,61.2,29.75,North,-999,-999.0,-999.0,85,-99.99,,,-99.99,meteohub,2013-08-05 06:32:00,
2013-08-05 02:38:00,65.8,61.5,29.75,North,-999,-999.0,-999.0,86,-99.99,,,-99.99,meteohub,2013-08-05 06:38:00,
2013-08-05 02:43:00,65.8,61.5,29.75,North,-999,-999.0,-999.0,86,-99.99,,,-99.99,meteohub,2013-08-05 06:43:00,
2013-08-05 02:48:00,65.8,61.5,29.75,North,-999,-999.0,-999.0,86,-99.99,,,-99.99,meteohub,2013-08-05 06:48:00,
2013-08-05 02:53:00,65.8,61.5,29.72,North,-999,-999.0,-999.0,86,-99.99,,,-99.99,meteohub,2013-08-05 06:53:00,
2013-08-05 02:58:00,65.7,61.3,29.72,North,-999,-999.0,-999.0,86,-99.99,,,-99.99,meteohub,2013-08-05 06:58:00,
2013-08-05 03:03:00,65.7,61.3,29.75,North,-999,-999.0,-999.0,86,-99.99,,,-99.99,meteohub,2013-08-05 07:03:00,
2013-08-05 03:08:00,65.7,61.7,29.75,North,-999,-999.0,-999.0,87,-99.99,,,-99.99,meteohub,2013-08-05 07:08:00,
2013-08-05 03:14:00,65.7,61.7,29.75,North,-999,-999.0,-999.0,87,-99.99,,,-99.99,meteohub,2013-08-05 07:14:00,
2013-08-05 03:18:00,65.8,62.2,29.75,North,-999,-999.0,-999.0,88,-99.99,,,-99.99,meteohub,2013-08-05 07:18:00,
2013-08-05 03:24:00,65.8,62.2,29.75,North,-999,-999.0,-999.0,88,-99.99,,,-99.99,meteohub,2013-08-05 07:24:00,
2013-08-05 03:29:00,66.0,62.4,29.75,North,-999,-999.0,-999.0,88,-99.99,,,-99.99,meteohub,2013-08-05 07:29:00,
2013-08-05 03:34:00,66.0,62.4,29.75,North,-999,-999.0,-999.0,88,-99.99,,,-99.99,meteohub,2013-08-05 07:34:00,
2013-08-05 03:39:00,66.0,62.4,29.75,North,-999,-999.0,-999.0,88,-99.99,,,-99.99,meteohub,2013-08-05 07:39:00,
2013-08-05 03:45:00,66.0,62.4,29.75,North,-999,-999.0,-999.0,88,-99.99,,,-99.99,meteohub,2013-08-05 07:45:00,
2013-08-05 03:50:00,66.2,62.6,29.75,North,-999,-999.0,-999.0,88,-99.99,,,-99.99,meteohub,2013-08-05 07:50:00,
2013-08-05 03:55:00,66.2,62.6,29.75,North,-999,-999.0,-999.0,88,-99.99,,,-99.99,meteohub,2013-08-05 07:55:00,
2013-08-05 04:00:00,66.4,63.0,29.75,North,-999,-999.0,-999.0,89,-99.99,,,-99.99,meteohub,2013-08-05 08:00:00,
2013-08-05 04:05:00,66.4,63.0,29.75,North,-999,-999.0,-999.0,89,-99.99,,,-99.99,meteohub,2013-08-05 08:05:00,
2013-08-05 04:10:00,66.4,63.0,29.75,North,-999,-999.0,-999.0,89,-99.99,,,-99.99,meteohub,2013-08-05 08:10:00,
2013-08-05 04:15:00,66.6,63.1,29.75,North,-999,-999.0,-999.0,89,-99.99,,,-99.99,meteohub,2013-08-05 08:15:00,
2013-08-05 04:21:00,66.6,63.1,29.75,North,-999,-999.0,-999.0,89,-99.99,,,-99.99,meteohub,2013-08-05 08:21:00,
2013-08-05 04:26:00,66.6,63.1,29.75,North,-999,-999.0,-999.0,89,-99.99,,,-99.99,meteohub,2013-08-05 08:26:00,
2013-08-05 04:31:00,66.7,63.3,29.75,North,-999,-999.0,-999.0,89,-99.99,,,-99.99,meteohub,2013-08-05 08:31:00,
2013-08-05 04:37:00,66.7,63.3,29.72,North,-999,-999.0,-999.0,89,-99.99,,,-99.99,meteohub,2013-08-05 08:37:00,
2013-08-05 04:42:00,66.9,63.5,29.72,North,-999,-999.0,-999.0,89,-99.99,,,-99.99,meteohub,2013-08-05 08:42:00,
2013-08-05 04:46:00,66.9,63.5,29.72,North,-999,-999.0,-999.0,89,-99.99,,,-99.99,meteohub,2013-08-05 08:46:00,
2013-08-05 04:52:00,66.7,63.3,29.72,North,-999,-999.0,-999.0,89,-99.99,,,-99.99,meteohub,2013-08-05 08:52:00,
2013-08-05 04:57:00,66.7,63.3,29.72,North,-999,-999.0,-999.0,89,-99.99,,,-99.99,meteohub,2013-08-05 08:57:00,
2013-08-05 05:04:00,66.7,63.3,29.72,North,-999,-999.0,-999.0,89,-99.99,,,-99.99,meteohub,2013-08-05 09:04:00,
2013-08-05 05:11:00,66.6,63.1,29.72,North,-999,-999.0,-999.0,89,-99.99,,,-99.99,meteohub,2013-08-05 09:11:00,
2013-08-05 05:16:00,66.6,63.1,29.72,North,-999,-999.0,-999.0,89,-99.99,,,-99.99,meteohub,2013-08-05 09:16:00,
2013-08-05 05:21:00,66.4,63.0,29.75,North,-999,-999.0,-999.0,89,-99.99,,,-99.99,meteohub,2013-08-05 09:21:00,
2013-08-05 05:28:00,66.2,62.8,29.75,North,-999,-999.0,-999.0,89,-99.99,,,-99.99,meteohub,2013-08-05 09:28:00,
2013-08-05 05:34:00,66.2,62.8,29.75,North,-999,-999.0,-999.0,89,-99.99,,,-99.99,meteohub,2013-08-05 09:34:00,
2013-08-05 05:42:00,66.2,62.8,29.75,North,-999,-999.0,-999.0,89,-99.99,,,-99.99,meteohub,2013-08-05 09:42:00,
2013-08-05 05:47:00,66.0,63.0,29.75,North,-999,-999.0,-999.0,90,-99.99,,,-99.99,meteohub,2013-08-05 09:47:00,
2013-08-05 05:52:00,66.0,63.0,29.75,North,-999,-999.0,-999.0,90,-99.99,,,-99.99,meteohub,2013-08-05 09:52:00,
2013-08-05 06:00:00,66.0,63.0,29.75,North,-999,-999.0,-999.0,90,-99.99,,,-99.99,meteohub,2013-08-05 10:00:00,
2013-08-05 06:07:00,66.0,63.0,29.75,North,-999,-999.0,-999.0,90,-99.99,,,-99.99,meteohub,2013-08-05 10:07:00,
2013-08-05 06:14:00,66.0,63.0,29.75,North,-999,-999.0,-999.0,90,-99.99,,,-99.99,meteohub,2013-08-05 10:14:00,
2013-08-05 06:19:00,66.0,63.0,29.75,North,-999,-999.0,-999.0,90,-99.99,,,-99.99,meteohub,2013-08-05 10:19:00,
2013-08-05 06:26:00,66.0,63.0,29.75,North,-999,-999.0,-999.0,90,-99.99,,,-99.99,meteohub,2013-08-05 10:26:00,
2013-08-05 06:32:00,66.0,63.0,29.75,North,-999,-999.0,-999.0,90,-99.99,,,-99.99,meteohub,2013-08-05 10:32:00,
2013-08-05 06:37:00,66.0,63.3,29.75,North,-999,-999.0,-999.0,91,-99.99,,,-99.99,meteohub,2013-08-05 10:37:00,
2013-08-05 06:41:00,66.0,63.3,29.75,North,-999,-999.0,-999.0,91,-99.99,,,-99.99,meteohub,2013-08-05 10:41:00,
2013-08-05 06:47:00,66.2,63.1,29.75,North,-999,-999.0,-999.0,90,-99.99,,,-99.99,meteohub,2013-08-05 10:47:00,
2013-08-05 06:53:00,66.2,63.1,29.78,North,-999,-999.0,-999.0,90,-99.99,,,-99.99,meteohub,2013-08-05 10:53:00,
2013-08-05 06:58:00,66.2,63.1,29.78,North,-999,-999.0,-999.0,90,-99.99,,,-99.99,meteohub,2013-08-05 10:58:00,
2013-08-05 07:04:00,66.4,63.7,29.78,North,-999,-999.0,-999.0,91,-99.99,,,-99.99,meteohub,2013-08-05 11:04:00,
2013-08-05 07:10:00,66.4,63.7,29.78,North,-999,-999.0,-999.0,91,-99.99,,,-99.99,meteohub,2013-08-05 11:10:00,
2013-08-05 07:17:00,66.6,63.9,29.78,North,-999,-999.0,-999.0,91,-99.99,,,-99.99,meteohub,2013-08-05 11:17:00,
2013-08-05 07:22:00,66.7,64.0,29.78,North,-999,-999.0,-999.0,91,-99.99,,,-99.99,meteohub,2013-08-05 11:22:00,
2013-08-05 07:27:00,66.7,64.0,29.78,North,-999,-999.0,-999.0,91,-99.99,,,-99.99,meteohub,2013-08-05 11:27:00,
2013-08-05 07:34:00,66.7,64.0,29.78,North,-999,-999.0,-999.0,91,-99.99,,,-99.99,meteohub,2013-08-05 11:34:00,
2013-08-05 07:39:00,66.9,63.9,29.78,North,-999,-999.0,-999.0,90,-99.99,,,-99.99,meteohub,2013-08-05 11:39:00,
2013-08-05 07:47:00,67.1,64.0,29.78,North,-999,-999.0,-999.0,90,-99.99,,,-99.99,meteohub,2013-08-05 11:47:00,
2013-08-05 07:52:00,67.1,64.0,29.78,North,-999,-999.0,-999.0,90,-99.99,,,-99.99,meteohub,2013-08-05 11:52:00,
2013-08-05 07:56:00,67.1,64.0,29.78,North,-999,-999.0,-999.0,90,-99.99,,,-99.99,meteohub,2013-08-05 11:56:00,
2013-08-05 08:02:00,67.3,63.9,29.78,North,-999,-999.0,-999.0,89,-99.99,,,-99.99,meteohub,2013-08-05 12:02:00,
2013-08-05 08:06:00,67.3,63.9,29.81,North,-999,-999.0,-999.0,89,-99.99,,,-99.99,meteohub,2013-08-05 12:06:00,
2013-08-05 08:11:00,67.5,64.0,29.81,North,-999,-999.0,-999.0,89,-99.99,,,-99.99,meteohub,2013-08-05 12:11:00,
2013-08-05 08:17:00,67.8,64.4,29.81,North,-999,-999.0,-999.0,89,-99.99,,,-99.99,meteohub,2013-08-05 12:17:00,
2013-08-05 08:24:00,68.0,64.4,29.81,North,-999,-999.0,-999.0,88,-99.99,,,-99.99,meteohub,2013-08-05 12:24:00,
2013-08-05 08:32:00,68.4,64.6,29.81,North,-999,-999.0,-999.0,88,-99.99,,,-99.99,meteohub,2013-08-05 12:32:00,
2013-08-05 08:36:00,68.5,64.8,29.81,North,-999,-999.0,-999.0,88,-99.99,,,-99.99,meteohub,2013-08-05 12:36:00,
2013-08-05 08:43:00,68.7,64.9,29.81,North,-999,-999.0,-999.0,88,-99.99,,,-99.99,meteohub,2013-08-05 12:43:00,
2013-08-05 08:48:00,69.1,64.8,29.81,North,-999,-999.0,-999.0,86,-99.99,,,-99.99,meteohub,2013-08-05 12:48:00,
2013-08-05 08:53:00,69.3,64.6,29.81,North,-999,-999.0,-999.0,85,-99.99,,,-99.99,meteohub,2013-08-05 12:53:00,
2013-08-05 08:59:00,69.4,64.4,29.81,North,-999,-999.0,-999.0,84,-99.99,,,-99.99,meteohub,2013-08-05 12:59:00,
2013-08-05 09:06:00,69.6,63.5,29.81,North,-999,-999.0,-999.0,81,-99.99,,,-99.99,meteohub,2013-08-05 13:06:00,
2013-08-05 09:14:00,69.8,63.3,29.81,North,-999,-999.0,-999.0,80,-99.99,,,-99.99,meteohub,2013-08-05 13:14:00,
2013-08-05 09:19:00,70.2,63.3,29.81,North,-999,-999.0,-999.0,79,-99.99,,,-99.99,meteohub,2013-08-05 13:19:00,
2013-08-05 09:27:00,70.2,63.0,29.81,North,-999,-999.0,-999.0,78,-99.99,,,-99.99,meteohub,2013-08-05 13:27:00,
2013-08-05 09:33:00,70.2,62.6,29.81,North,-999,-999.0,-999.0,77,-99.99,,,-99.99,meteohub,2013-08-05 13:33:00,
2013-08-05 09:37:00,70.7,63.1,29.78,North,-999,-999.0,-999.0,77,-99.99,,,-99.99,meteohub,2013-08-05 13:37:00,
2013-08-05 09:43:00,71.1,63.5,29.78,North,-999,-999.0,-999.0,77,-99.99,,,-99.99,meteohub,2013-08-05 13:43:00,
2013-08-05 09:51:00,71.1,63.1,29.78,North,-999,-999.0,-999.0,76,-99.99,,,-99.99,meteohub,2013-08-05 13:51:00,
2013-08-05 09:56:00,72.0,62.8,29.81,North,-999,-999.0,-999.0,73,-99.99,,,-99.99,meteohub,2013-08-05 13:56:00,
2013-08-05 10:02:00,72.7,62.4,29.81,North,-999,-999.0,-999.0,70,-99.99,,,-99.99,meteohub,2013-08-05 14:02:00,
2013-08-05 10:07:00,72.9,61.7,29.81,North,-999,-999.0,-999.0,68,-99.99,,,-99.99,meteohub,2013-08-05 14:07:00,
2013-08-05 10:13:00,73.0,61.9,29.81,North,-999,-999.0,-999.0,68,-99.99,,,-99.99,meteohub,2013-08-05 14:13:00,
2013-08-05 10:19:00,73.4,61.3,29.81,North,-999,-999.0,-999.0,66,-99.99,,,-99.99,meteohub,2013-08-05 14:19:00,
2013-08-05 10:26:00,73.8,60.4,29.81,North,-999,-999.0,-999.0,63,-99.99,,,-99.99,meteohub,2013-08-05 14:26:00,
2013-08-05 10:32:00,74.1,59.9,29.81,North,-999,-999.0,-999.0,61,-99.99,,,-99.99,meteohub,2013-08-05 14:32:00,
2013-08-05 10:37:00,74.3,60.4,29.81,North,-999,-999.0,-999.0,62,-99.99,,,-99.99,meteohub,2013-08-05 14:37:00,
2013-08-05 10:42:00,74.7,60.3,29.81,North,-999,-999.0,-999.0,61,-99.99,,,-99.99,meteohub,2013-08-05 14:42:00,
2013-08-05 10:47:00,75.2,59.0,29.81,North,-999,-999.0,-999.0,57,-99.99,,,-99.99,meteohub,2013-08-05 14:47:00,
2013-08-05 10:51:00,75.4,58.6,29.81,North,-999,-999.0,-999.0,56,-99.99,,,-99.99,meteohub,2013-08-05 14:51:00,
2013-08-05 10:57:00,75.4,58.1,29.81,North,-999,-999.0,-999.0,55,-99.99,,,-99.99,meteohub,2013-08-05 14:57:00,
2013-08-05 11:02:00,75.2,58.5,29.81,North,-999,-999.0,-999.0,56,-99.99,,,-99.99,meteohub,2013-08-05 15:02:00,
2013-08-05 11:07:00,75.4,58.6,29.81,North,-999,-999.0,-999.0,56,-99.99,,,-99.99,meteohub,2013-08-05 15:07:00,
2013-08-05 11:12:00,75.7,56.8,29.81,North,-999,-999.0,-999.0,52,-99.99,,,-99.99,meteohub,2013-08-05 15:12:00,
2013-08-05 11:16:00,76.3,56.8,29.81,North,-999,-999.0,-999.0,51,-99.99,,,-99.99,meteohub,2013-08-05 15:16:00,
2013-08-05 11:22:00,76.5,56.5,29.81,North,-999,-999.0,-999.0,50,-99.99,,,-99.99,meteohub,2013-08-05 15:22:00,
2013-08-05 11:27:00,76.8,57.4,29.81,North,-999,-999.0,-999.0,51,-99.99,,,-99.99,meteohub,2013-08-05 15:27:00,
2013-08-05 11:32:00,77.2,57.0,29.81,North,-999,-999.0,-999.0,50,-99.99,,,-99.99,meteohub,2013-08-05 15:32:00,
2013-08-05 11:37:00,77.9,56.1,29.81,North,-999,-999.0,-999.0,47,-99.99,,,-99.99,meteohub,2013-08-05 15:37:00,
2013-08-05 11:42:00,78.3,56.3,29.81,North,-999,-999.0,-999.0,47,-99.99,,,-99.99,meteohub,2013-08-05 15:42:00,
2013-08-05 11:47:00,78.4,55.9,29.81,North,-999,-999.0,-999.0,46,-99.99,,,-99.99,meteohub,2013-08-05 15:47:00,
2013-08-05 11:52:00,78.8,55.0,29.81,North,-999,-999.0,-999.0,44,-99.99,,,-99.99,meteohub,2013-08-05 15:52:00,
2013-08-05 11:58:00,79.0,54.5,29.81,North,-999,-999.0,-999.0,43,-99.99,,,-99.99,meteohub,2013-08-05 15:58:00,
2013-08-05 12:06:00,80.2,56.3,29.81,North,-999,-999.0,-999.0,44,-99.99,,,-99.99,meteohub,2013-08-05 16:06:00,
2013-08-05 12:11:00,81.0,56.3,29.81,North,-999,-999.0,-999.0,43,-99.99,,,-99.99,meteohub,2013-08-05 16:11:00,
2013-08-05 12:16:00,80.4,55.9,29.81,North,-999,-999.0,-999.0,43,-99.99,,,-99.99,meteohub,2013-08-05 16:16:00,
2013-08-05 12:22:00,81.7,57.7,29.81,North,-999,-999.0,-999.0,44,-99.99,,,-99.99,meteohub,2013-08-05 16:22:00,
2013-08-05 12:29:00,81.9,57.2,29.81,North,-999,-999.0,-999.0,43,-99.99,,,-99.99,meteohub,2013-08-05 16:29:00,
2013-08-05 12:34:00,81.9,57.2,29.81,North,-999,-999.0,-999.0,43,-99.99,,,-99.99,meteohub,2013-08-05 16:34:00,
2013-08-05 12:40:00,81.7,56.3,29.81,North,-999,-999.0,-999.0,42,-99.99,,,-99.99,meteohub,2013-08-05 16:40:00,
2013-08-05 12:46:00,81.9,57.2,29.81,North,-999,-999.0,-999.0,43,-99.99,,,-99.99,meteohub,2013-08-05 16:46:00,
2013-08-05 12:51:00,80.2,56.3,29.81,North,-999,-999.0,-999.0,44,-99.99,,,-99.99,meteohub,2013-08-05 16:51:00,
2013-08-05 12:57:00,79.5,55.8,29.81,North,-999,-999.0,-999.0,44,-99.99,,,-99.99,meteohub,2013-08-05 16:57:00,
2013-08-05 13:02:00,79.5,56.3,29.81,North,-999,-999.0,-999.0,45,-99.99,,,-99.99,meteohub,2013-08-05 17:02:00,
2013-08-05 13:09:00,79.7,56.5,29.81,North,-999,-999.0,-999.0,45,-99.99,,,-99.99,meteohub,2013-08-05 17:09:00,
2013-08-05 13:15:00,79.3,56.1,29.81,North,-999,-999.0,-999.0,45,-99.99,,,-99.99,meteohub,2013-08-05 17:15:00,
2013-08-05 13:20:00,79.9,57.2,29.81,North,-999,-999.0,-999.0,46,-99.99,,,-99.99,meteohub,2013-08-05 17:20:00,
2013-08-05 13:25:00,80.6,57.9,29.81,North,-999,-999.0,-999.0,46,-99.99,,,-99.99,meteohub,2013-08-05 17:25:00,
2013-08-05 13:30:00,80.4,57.7,29.81,North,-999,-999.0,-999.0,46,-99.99,,,-99.99,meteohub,2013-08-05 17:30:00,
2013-08-05 13:36:00,80.1,56.8,29.78,North,-999,-999.0,-999.0,45,-99.99,,,-99.99,meteohub,2013-08-05 17:36:00,
2013-08-05 13:42:00,79.9,57.2,29.78,North,-999,-999.0,-999.0,46,-99.99,,,-99.99,meteohub,2013-08-05 17:42:00,
2013-08-05 13:47:00,79.9,57.9,29.78,North,-999,-999.0,-999.0,47,-99.99,,,-99.99,meteohub,2013-08-05 17:47:00,
2013-08-05 13:52:00,79.9,57.9,29.78,North,-999,-999.0,-999.0,47,-99.99,,,-99.99,meteohub,2013-08-05 17:52:00,
2013-08-05 13:57:00,81.0,58.3,29.78,North,-999,-999.0,-999.0,46,-99.99,,,-99.99,meteohub,2013-08-05 17:57:00,
2013-08-05 14:04:00,81.0,57.6,29.78,North,-999,-999.0,-999.0,45,-99.99,,,-99.99,meteohub,2013-08-05 18:04:00,
2013-08-05 14:10:00,82.4,58.3,29.78,North,-999,-999.0,-999.0,44,-99.99,,,-99.99,meteohub,2013-08-05 18:10:00,
2013-08-05 14:17:00,83.1,57.7,29.78,North,-999,-999.0,-999.0,42,-99.99,,,-99.99,meteohub,2013-08-05 18:17:00,
2013-08-05 14:22:00,83.1,57.7,29.78,North,-999,-999.0,-999.0,42,-99.99,,,-99.99,meteohub,2013-08-05 18:22:00,
2013-08-05 14:27:00,82.6,56.5,29.78,North,-999,-999.0,-999.0,41,-99.99,,,-99.99,meteohub,2013-08-05 18:27:00,
2013-08-05 14:35:00,81.1,56.5,29.78,North,-999,-999.0,-999.0,43,-99.99,,,-99.99,meteohub,2013-08-05 18:35:00,
2013-08-05 14:42:00,81.1,56.5,29.78,North,-999,-999.0,-999.0,43,-99.99,,,-99.99,meteohub,2013-08-05 18:42:00,
2013-08-05 14:47:00,80.8,56.8,29.78,North,-999,-999.0,-999.0,44,-99.99,,,-99.99,meteohub,2013-08-05 18:47:00,
2013-08-05 14:52:00,81.5,58.1,29.78,North,-999,-999.0,-999.0,45,-99.99,,,-99.99,meteohub,2013-08-05 18:52:00,
2013-08-05 14:57:00,81.1,57.7,29.78,North,-999,-999.0,-999.0,45,-99.99,,,-99.99,meteohub,2013-08-05 18:57:00,
2013-08-05 15:02:00,80.8,57.4,29.78,North,-999,-999.0,-999.0,45,-99.99,,,-99.99,meteohub,2013-08-05 19:02:00,
2013-08-05 15:07:00,80.6,56.7,29.75,North,-999,-999.0,-999.0,44,-99.99,,,-99.99,meteohub,2013-08-05 19:07:00,
2013-08-05 15:12:00,80.8,57.4,29.75,North,-999,-999.0,-999.0,45,-99.99,,,-99.99,meteohub,2013-08-05 19:12:00,
2013-08-05 15:18:00,81.0,57.6,29.75,North,-999,-999.0,-999.0,45,-99.99,,,-99.99,meteohub,2013-08-05 19:18:00,
2013-08-05 15:26:00,81.9,58.5,29.78,North,-999,-999.0,-999.0,45,-99.99,,,-99.99,meteohub,2013-08-05 19:26:00,
2013-08-05 15:31:00,82.2,58.8,29.78,North,-999,-999.0,-999.0,45,-99.99,,,-99.99,meteohub,2013-08-05 19:31:00,
2013-08-05 15:37:00,82.2,58.1,29.75,North,-999,-999.0,-999.0,44,-99.99,,,-99.99,meteohub,2013-08-05 19:37:00,
2013-08-05 15:42:00,82.6,57.7,29.75,North,-999,-999.0,-999.0,43,-99.99,,,-99.99,meteohub,2013-08-05 19:42:00,
2013-08-05 15:47:00,82.6,58.5,29.75,North,-999,-999.0,-999.0,44,-99.99,,,-99.99,meteohub,2013-08-05 19:47:00,
2013-08-05 15:52:00,82.2,56.8,29.75,North,-999,-999.0,-999.0,42,-99.99,,,-99.99,meteohub,2013-08-05 19:52:00,
2013-08-05 15:57:00,82.0,56.7,29.75,North,-999,-999.0,-999.0,42,-99.99,,,-99.99,meteohub,2013-08-05 19:57:00,
2013-08-05 16:03:00,81.7,56.3,29.75,North,-999,-999.0,-999.0,42,-99.99,,,-99.99,meteohub,2013-08-05 20:03:00,
2013-08-05 16:10:00,81.5,56.8,29.75,North,-999,-999.0,-999.0,43,-99.99,,,-99.99,meteohub,2013-08-05 20:10:00,
2013-08-05 16:15:00,81.9,57.2,29.75,North,-999,-999.0,-999.0,43,-99.99,,,-99.99,meteohub,2013-08-05 20:15:00,
2013-08-05 16:22:00,82.2,58.8,29.75,North,-999,-999.0,-999.0,45,-99.99,,,-99.99,meteohub,2013-08-05 20:22:00,
2013-08-05 16:27:00,82.6,59.7,29.75,North,-999,-999.0,-999.0,46,-99.99,,,-99.99,meteohub,2013-08-05 20:27:00,
2013-08-05 16:32:00,82.8,59.2,29.75,North,-999,-999.0,-999.0,45,-99.99,,,-99.99,meteohub,2013-08-05 20:32:00,
2013-08-05 16:37:00,82.9,59.4,29.75,North,-999,-999.0,-999.0,45,-99.99,,,-99.99,meteohub,2013-08-05 20:37:00,
2013-08-05 16:42:00,82.9,58.1,29.75,North,-999,-999.0,-999.0,43,-99.99,,,-99.99,meteohub,2013-08-05 20:42:00,
2013-08-05 16:47:00,83.3,58.5,29.75,North,-999,-999.0,-999.0,43,-99.99,,,-99.99,meteohub,2013-08-05 20:47:00,
2013-08-05 16:52:00,83.1,57.7,29.75,North,-999,-999.0,-999.0,42,-99.99,,,-99.99,meteohub,2013-08-05 20:52:00,
2013-08-05 16:57:00,83.1,57.7,29.75,North,-999,-999.0,-999.0,42,-99.99,,,-99.99,meteohub,2013-08-05 20:57:00,
2013-08-05 17:02:00,83.3,58.5,29.75,North,-999,-999.0,-999.0,43,-99.99,,,-99.99,meteohub,2013-08-05 21:02:00,
2013-08-05 17:07:00,83.3,57.7,29.75,North,-999,-999.0,-999.0,42,-99.99,,,-99.99,meteohub,2013-08-05 21:07:00,
2013-08-05 17:12:00,82.9,57.6,29.75,North,-999,-999.0,-999.0,42,-99.99,,,-99.99,meteohub,2013-08-05 21:12:00,
2013-08-05 17:17:00,83.1,57.7,29.75,North,-999,-999.0,-999.0,42,-99.99,,,-99.99,meteohub,2013-08-05 21:17:00,
2013-08-05 17:24:00,82.9,58.1,29.75,North,-999,-999.0,-999.0,43,-99.99,,,-99.99,meteohub,2013-08-05 21:24:00,
2013-08-05 17:32:00,82.8,57.9,29.75,North,-999,-999.0,-999.0,43,-99.99,,,-99.99,meteohub,2013-08-05 21:32:00,
2013-08-05 17:37:00,82.2,58.1,29.75,North,-999,-999.0,-999.0,44,-99.99,,,-99.99,meteohub,2013-08-05 21:37:00,
2013-08-05 17:42:00,82.2,57.6,29.75,North,-999,-999.0,-999.0,43,-99.99,,,-99.99,meteohub,2013-08-05 21:42:00,
2013-08-05 17:47:00,81.7,57.7,29.75,North,-999,-999.0,-999.0,44,-99.99,,,-99.99,meteohub,2013-08-05 21:47:00,
2013-08-05 17:55:00,81.5,57.6,29.75,North,-999,-999.0,-999.0,44,-99.99,,,-99.99,meteohub,2013-08-05 21:55:00,
2013-08-05 18:02:00,81.0,57.6,29.75,North,-999,-999.0,-999.0,45,-99.99,,,-99.99,meteohub,2013-08-05 22:02:00,
2013-08-05 18:07:00,80.8,56.8,29.75,North,-999,-999.0,-999.0,44,-99.99,,,-99.99,meteohub,2013-08-05 22:07:00,
2013-08-05 18:12:00,80.8,56.8,29.75,North,-999,-999.0,-999.0,44,-99.99,,,-99.99,meteohub,2013-08-05 22:12:00,
2013-08-05 18:19:00,80.8,56.8,29.75,North,-999,-999.0,-999.0,44,-99.99,,,-99.99,meteohub,2013-08-05 22:19:00,
2013-08-05 18:26:00,80.6,57.4,29.75,North,-999,-999.0,-999.0,45,-99.99,,,-99.99,meteohub,2013-08-05 22:26:00,
2013-08-05 18:34:00,79.5,57.6,29.75,North,-999,-999.0,-999.0,47,-99.99,,,-99.99,meteohub,2013-08-05 22:34:00,
2013-08-05 18:42:00,79.2,57.7,29.75,North,-999,-999.0,-999.0,48,-99.99,,,-99.99,meteohub,2013-08-05 22:42:00,
2013-08-05 18:47:00,79.7,58.3,29.75,North,-999,-999.0,-999.0,48,-99.99,,,-99.99,meteohub,2013-08-05 22:47:00,
2013-08-05 18:52:00,79.7,58.3,29.75,North,-999,-999.0,-999.0,48,-99.99,,,-99.99,meteohub,2013-08-05 22:52:00,
2013-08-05 18:59:00,79.3,57.9,29.75,North,-999,-999.0,-999.0,48,-99.99,,,-99.99,meteohub,2013-08-05 22:59:00,
2013-08-05 19:06:00,79.0,58.3,29.75,North,-999,-999.0,-999.0,49,-99.99,,,-99.99,meteohub,2013-08-05 23:06:00,
2013-08-05 19:12:00,79.0,58.8,29.75,North,-999,-999.0,-999.0,50,-99.99,,,-99.99,meteohub,2013-08-05 23:12:00,
2013-08-05 19:18:00,78.8,58.6,29.75,North,-999,-999.0,-999.0,50,-99.99,,,-99.99,meteohub,2013-08-05 23:18:00,
2013-08-05 19:23:00,78.3,59.2,29.75,North,-999,-999.0,-999.0,52,-99.99,,,-99.99,meteohub,2013-08-05 23:23:00,
2013-08-05 19:29:00,78.1,59.0,29.75,North,-999,-999.0,-999.0,52,-99.99,,,-99.99,meteohub,2013-08-05 23:29:00,
2013-08-05 19:34:00,77.9,59.9,29.75,North,-999,-999.0,-999.0,54,-99.99,,,-99.99,meteohub,2013-08-05 23:34:00,
2013-08-05 19:41:00,77.7,59.7,29.75,North,-999,-999.0,-999.0,54,-99.99,,,-99.99,meteohub,2013-08-05 23:41:00,
2013-08-05 19:47:00,77.4,59.9,29.75,North,-999,-999.0,-999.0,55,-99.99,,,-99.99,meteohub,2013-08-05 23:47:00,
2013-08-05 19:52:00,77.0,59.5,29.75,North,-999,-999.0,-999.0,55,-99.99,,,-99.99,meteohub,2013-08-05 23:52:00,
2013-08-05 19:57:00,76.8,60.4,29.75,North,-999,-999.0,-999.0,57,-99.99,,,-99.99,meteohub,2013-08-05 23:57:00,
2013-08-05 20:02:00,76.8,60.4,29.75,North,-999,-999.0,-999.0,57,-99.99,,,-99.99,meteohub,2013-08-06 00:02:00,
2013-08-05 20:07:00,76.6,60.8,29.75,North,-999,-999.0,-999.0,58,-99.99,,,-99.99,meteohub,2013-08-06 00:07:00,
2013-08-05 20:12:00,76.5,61.2,29.75,North,-999,-999.0,-999.0,59,-99.99,,,-99.99,meteohub,2013-08-06 00:12:00,
2013-08-05 20:21:00,76.3,61.3,29.75,North,-999,-999.0,-999.0,60,-99.99,,,-99.99,meteohub,2013-08-06 00:21:00,
2013-08-05 20:27:00,75.9,61.0,29.75,North,-999,-999.0,-999.0,60,-99.99,,,-99.99,meteohub,2013-08-06 00:27:00,
2013-08-05 20:32:00,75.7,61.3,29.75,North,-999,-999.0,-999.0,61,-99.99,,,-99.99,meteohub,2013-08-06 00:32:00,
2013-08-05 20:37:00,75.7,61.3,29.75,North,-999,-999.0,-999.0,61,-99.99,,,-99.99,meteohub,2013-08-06 00:37:00,
2013-08-05 20:43:00,75.6,61.2,29.75,North,-999,-999.0,-999.0,61,-99.99,,,-99.99,meteohub,2013-08-06 00:43:00,
2013-08-05 20:48:00,75.6,61.7,29.75,North,-999,-999.0,-999.0,62,-99.99,,,-99.99,meteohub,2013-08-06 00:48:00,
2013-08-05 20:56:00,75.6,61.7,29.75,North,-999,-999.0,-999.0,62,-99.99,,,-99.99,meteohub,2013-08-06 00:56:00,
2013-08-05 21:01:00,75.6,61.7,29.75,North,-999,-999.0,-999.0,62,-99.99,,,-99.99,meteohub,2013-08-06 01:01:00,
2013-08-05 21:07:00,75.6,61.7,29.75,North,-999,-999.0,-999.0,62,-99.99,,,-99.99,meteohub,2013-08-06 01:07:00,
2013-08-05 21:12:00,75.4,62.8,29.78,North,-999,-999.0,-999.0,65,-99.99,,,-99.99,meteohub,2013-08-06 01:12:00,
2013-08-05 21:19:00,75.2,62.2,29.78,North,-999,-999.0,-999.0,64,-99.99,,,-99.99,meteohub,2013-08-06 01:19:00,
2013-08-05 21:24:00,75.2,63.1,29.75,North,-999,-999.0,-999.0,66,-99.99,,,-99.99,meteohub,2013-08-06 01:24:00,
2013-08-05 21:30:00,75.0,63.0,29.75,North,-999,-999.0,-999.0,66,-99.99,,,-99.99,meteohub,2013-08-06 01:30:00,
2013-08-05 21:35:00,75.0,62.4,29.75,North,-999,-999.0,-999.0,65,-99.99,,,-99.99,meteohub,2013-08-06 01:35:00,
2013-08-05 21:42:00,75.0,63.0,29.75,North,-999,-999.0,-999.0,66,-99.99,,,-99.99,meteohub,2013-08-06 01:42:00,
2013-08-05 21:47:00,74.8,62.8,29.75,North,-999,-999.0,-999.0,66,-99.99,,,-99.99,meteohub,2013-08-06 01:47:00,
2013-08-05 21:52:00,74.8,62.8,29.75,North,-999,-999.0,-999.0,66,-99.99,,,-99.99,meteohub,2013-08-06 01:52:00,
2013-08-05 21:57:00,74.8,62.2,29.75,North,-999,-999.0,-999.0,65,-99.99,,,-99.99,meteohub,2013-08-06 01:57:00,
2013-08-05 22:02:00,74.8,62.2,29.75,North,-999,-999.0,-999.0,65,-99.99,,,-99.99,meteohub,2013-08-06 02:02:00,
2013-08-05 22:07:00,74.8,62.2,29.75,North,-999,-999.0,-999.0,65,-99.99,,,-99.99,meteohub,2013-08-06 02:07:00,
2013-08-05 22:12:00,75.0,62.4,29.75,North,-999,-999.0,-999.0,65,-99.99,,,-99.99,meteohub,2013-08-06 02:12:00,
2013-08-05 22:17:00,75.2,62.2,29.75,North,-999,-999.0,-999.0,64,-99.99,,,-99.99,meteohub,2013-08-06 02:17:00,
2013-08-05 22:22:00,75.2,62.2,29.75,North,-999,-999.0,-999.0,64,-99.99,,,-99.99,meteohub,2013-08-06 02:22:00,
2013-08-05 22:27:00,75.4,61.9,29.75,North,-999,-999.0,-999.0,63,-99.99,,,-99.99,meteohub,2013-08-06 02:27:00,
2013-08-05 22:32:00,75.4,61.9,29.75,North,-999,-999.0,-999.0,63,-99.99,,,-99.99,meteohub,2013-08-06 02:32:00,
2013-08-05 22:40:00,75.4,61.5,29.72,North,-999,-999.0,-999.0,62,-99.99,,,-99.99,meteohub,2013-08-06 02:40:00,
2013-08-05 22:47:00,75.6,61.7,29.72,North,-999,-999.0,-999.0,62,-99.99,,,-99.99,meteohub,2013-08-06 02:47:00,
2013-08-05 22:52:00,75.6,61.2,29.75,North,-999,-999.0,-999.0,61,-99.99,,,-99.99,meteohub,2013-08-06 02:52:00,
2013-08-05 22:58:00,75.6,61.2,29.75,North,-999,-999.0,-999.0,61,-99.99,,,-99.99,meteohub,2013-08-06 02:58:00,
2013-08-05 23:04:00,75.6,61.2,29.75,North,-999,-999.0,-999.0,61,-99.99,,,-99.99,meteohub,2013-08-06 03:04:00,
2013-08-05 23:12:00,75.6,61.2,29.75,North,-999,-999.0,-999.0,61,-99.99,,,-99.99,meteohub,2013-08-06 03:12:00,
2013-08-05 23:17:00,75.6,61.2,29.75,North,-999,-999.0,-999.0,61,-99.99,,,-99.99,meteohub,2013-08-06 03:17:00,
2013-08-05 23:22:00,75.6,61.2,29.72,North,-999,-999.0,-999.0,61,-99.99,,,-99.99,meteohub,2013-08-06 03:22:00,
2013-08-05 23:27:00,75.6,61.2,29.72,North,-999,-999.0,-999.0,61,-99.99,,,-99.99,meteohub,2013-08-06 03:27:00,
2013-08-05 23:32:00,75.6,61.2,29.72,North,-999,-999.0,-999.0,61,-99.99,,,-99.99,meteohub,2013-08-06 03:32:00,
2013-08-05 23:37:00,75.6,61.2,29.72,North,-999,-999.0,-999.0,61,-99.99,,,-99.99,meteohub,2013-08-06 03:37:00,
2013-08-05 23:42:00,75.6,61.2,29.72,North,-999,-999.0,-999.0,61,-99.99,,,-99.99,meteohub,2013-08-06 03:42:00,
2013-08-05 23:47:00,75.6,61.7,29.72,North,-999,-999.0,-999.0,62,-99.99,,,-99.99,meteohub,2013-08-06 03:47:00,
2013-08-05 23:52:00,75.6,61.7,29.72,North,-999,-999.0,-999.0,62,-99.99,,,-99.99,meteohub,2013-08-06 03:52:00,
2013-08-05 23:57:00,75.6,61.7,29.72,North,-999,-999.0,-999.0,62,-99.99,,,-99.99,meteohub,2013-08-06 03:57:00,